createdAt,value
2019-03-31T00:02:07.356Z,96.30
2019-03-31T00:04:35.833Z,96.60
2019-03-31T00:07:04.281Z,96.50
2019-03-31T00:09:32.767Z,96.40
2019-03-31T00:12:01.211Z,96.50
2019-03-31T00:14:29.690Z,96.50
2019-03-31T00:16:58.189Z,96.50
2019-03-31T00:19:26.648Z,96.60
2019-03-31T00:21:55.088Z,96.60
2019-03-31T00:24:23.558Z,96.50
2019-03-31T00:26:52.005Z,96.50
2019-03-31T00:29:20.472Z,96.70
2019-03-31T00:31:48.916Z,96.90
2019-03-31T00:34:17.407Z,96.90
2019-03-31T00:36:45.925Z,97.00
2019-03-31T00:39:14.609Z,97.10
2019-03-31T00:41:43.048Z,97.00
2019-03-31T00:44:11.496Z,96.90
2019-03-31T00:46:39.991Z,96.90
2019-03-31T00:49:08.508Z,96.90
2019-03-31T00:51:36.951Z,97.00
2019-03-31T00:54:05.419Z,97.00
2019-03-31T00:56:33.913Z,97.10
2019-03-31T00:59:02.358Z,97.10
2019-03-31T01:01:36.987Z,97.20
2019-03-31T01:04:07.026Z,97.00
2019-03-31T01:06:36.985Z,97.00
2019-03-31T01:09:10.237Z,97.10
2019-03-31T01:11:38.708Z,96.90
2019-03-31T01:14:07.321Z,96.90
2019-03-31T01:16:35.807Z,97.10
2019-03-31T01:19:04.421Z,97.10
2019-03-31T01:21:32.937Z,97.10
2019-03-31T01:24:01.377Z,97.00
2019-03-31T01:26:31.300Z,97.10
2019-03-31T01:29:00.237Z,97.10
2019-03-31T01:31:28.745Z,97.50
2019-03-31T01:33:57.185Z,97.40
2019-03-31T01:36:25.881Z,97.40
2019-03-31T01:38:54.325Z,97.40
2019-03-31T01:41:22.778Z,97.50
2019-03-31T01:43:51.739Z,97.60
2019-03-31T01:46:22.283Z,97.70
2019-03-31T01:48:50.756Z,97.70
2019-03-31T01:51:19.281Z,97.60
2019-03-31T01:53:47.780Z,97.60
2019-03-31T01:56:16.565Z,97.60
2019-03-31T01:58:45.011Z,97.50
2019-03-31T02:01:18.176Z,97.60
2019-03-31T02:03:46.630Z,97.60
2019-03-31T02:06:15.080Z,97.60
2019-03-31T02:08:43.573Z,97.60
2019-03-31T02:11:12.012Z,97.70
2019-03-31T02:13:40.453Z,97.80
2019-03-31T02:16:08.963Z,97.90
2019-03-31T02:18:37.413Z,97.90
2019-03-31T02:21:05.857Z,98.00
2019-03-31T02:23:34.345Z,97.90
2019-03-31T02:26:02.789Z,98.10
2019-03-31T02:28:31.276Z,98.10
2019-03-31T02:30:59.757Z,98.00
2019-03-31T02:33:28.273Z,98.00
2019-03-31T02:35:56.786Z,98.10
2019-03-31T02:38:25.238Z,98.10
2019-03-31T02:40:53.683Z,98.10
2019-03-31T02:43:22.809Z,98.30
2019-03-31T02:45:51.314Z,97.90
2019-03-31T02:48:19.759Z,98.10
2019-03-31T02:50:52.502Z,98.00
2019-03-31T02:53:21.551Z,98.20
2019-03-31T02:55:51.219Z,98.60
2019-03-31T02:58:20.702Z,98.70
2019-03-31T03:00:49.530Z,98.70
2019-03-31T03:03:19.048Z,98.80
2019-03-31T03:05:47.996Z,99.00
2019-03-31T03:08:18.262Z,99.60
2019-03-31T03:10:50.106Z,99.30
2019-03-31T03:13:19.682Z,99.60
2019-03-31T03:15:59.566Z,99.30
2019-03-31T03:18:28.005Z,99.10
2019-03-31T03:20:56.485Z,99.40
2019-03-31T03:23:24.965Z,99.20
2019-03-31T03:25:56.163Z,99.10
2019-03-31T03:28:23.613Z,99.20
2019-03-31T03:30:52.099Z,99.30
2019-03-31T03:33:20.888Z,99.20
2019-03-31T03:35:49.534Z,99.00
2019-03-31T03:38:18.257Z,99.10
2019-03-31T03:40:46.710Z,99.40
2019-03-31T03:43:15.157Z,99.30
2019-03-31T03:45:43.918Z,99.30
2019-03-31T03:48:12.379Z,99.20
2019-03-31T03:50:40.885Z,99.10
2019-03-31T03:53:10.117Z,99.00
2019-03-31T03:55:38.604Z,99.10
2019-03-31T03:58:07.052Z,99.10
2019-03-31T04:00:35.562Z,99.10
2019-03-31T04:03:04.244Z,99.10
2019-03-31T04:05:32.768Z,99.00
2019-03-31T04:08:01.352Z,99.10
2019-03-31T04:10:45.126Z,99.30
2019-03-31T04:13:14.942Z,99.50
2019-03-31T04:15:43.466Z,99.40
2019-03-31T04:18:12.043Z,99.40
2019-03-31T04:20:40.542Z,99.60
2019-03-31T04:23:09.062Z,99.70
2019-03-31T04:25:37.511Z,99.50
2019-03-31T04:28:06.030Z,99.50
2019-03-31T04:30:34.539Z,99.40
2019-03-31T04:33:03.153Z,99.30
2019-03-31T04:35:31.750Z,99.30
2019-03-31T04:38:00.534Z,99.20
2019-03-31T04:40:28.981Z,99.00
2019-03-31T04:42:57.433Z,98.90
2019-03-31T04:45:25.914Z,99.10
2019-03-31T04:47:54.359Z,99.20
2019-03-31T04:50:22.869Z,99.30
2019-03-31T04:52:51.319Z,99.30
2019-03-31T04:55:19.757Z,99.40
2019-03-31T04:57:48.269Z,99.40
2019-03-31T05:00:16.721Z,99.40
2019-03-31T05:02:45.172Z,99.50
2019-03-31T05:05:13.688Z,99.40
2019-03-31T05:07:42.209Z,99.60
2019-03-31T05:10:10.821Z,99.60
2019-03-31T05:12:39.294Z,99.60
2019-03-31T05:15:07.746Z,99.70
2019-03-31T05:17:36.226Z,99.80
2019-03-31T05:20:06.019Z,99.80
2019-03-31T05:22:34.493Z,99.60
2019-03-31T05:25:03.257Z,99.80
2019-03-31T05:27:33.407Z,99.60
2019-03-31T05:30:02.138Z,99.90
2019-03-31T05:32:32.357Z,99.90
2019-03-31T05:35:00.789Z,99.90
2019-03-31T05:37:29.301Z,99.90
2019-03-31T05:39:57.748Z,99.90
2019-03-31T05:42:26.197Z,99.90
2019-03-31T05:44:54.757Z,99.90
2019-03-31T05:47:23.235Z,99.90
2019-03-31T05:49:51.937Z,99.90
2019-03-31T05:52:20.395Z,99.90
2019-03-31T05:54:49.150Z,99.90
2019-03-31T05:57:17.673Z,99.90
2019-03-31T05:59:46.134Z,99.90
2019-03-31T06:02:14.872Z,99.60
2019-03-31T06:04:43.320Z,99.40
2019-03-31T06:07:11.766Z,99.10
2019-03-31T06:09:40.257Z,98.90
2019-03-31T06:12:08.709Z,98.70
2019-03-31T06:14:37.153Z,98.40
2019-03-31T06:17:05.638Z,98.30
2019-03-31T06:19:34.075Z,98.30
2019-03-31T06:22:02.572Z,98.10
2019-03-31T06:24:31.181Z,98.10
2019-03-31T06:26:59.926Z,97.90
2019-03-31T06:29:28.365Z,97.80
2019-03-31T06:31:56.813Z,97.50
2019-03-31T06:34:25.284Z,97.50
2019-03-31T06:36:53.727Z,97.40
2019-03-31T06:39:22.211Z,97.20
2019-03-31T06:41:50.733Z,97.00
2019-03-31T06:44:19.183Z,97.00
2019-03-31T06:46:47.657Z,96.90
2019-03-31T06:49:16.103Z,96.80
2019-03-31T06:51:44.588Z,97.00
2019-03-31T06:54:13.037Z,96.50
2019-03-31T06:56:41.517Z,96.40
2019-03-31T06:59:10.012Z,96.40
2019-03-31T07:01:38.465Z,96.40
2019-03-31T07:04:07.573Z,96.10
2019-03-31T07:06:36.056Z,95.80
2019-03-31T07:09:06.158Z,95.70
2019-03-31T07:11:34.605Z,95.60
2019-03-31T07:14:03.050Z,95.30
2019-03-31T07:16:31.530Z,95.50
2019-03-31T07:18:59.978Z,95.40
2019-03-31T07:21:28.462Z,94.70
2019-03-31T07:23:56.945Z,94.40
2019-03-31T07:26:25.393Z,93.90
2019-03-31T07:28:54.030Z,93.90
2019-03-31T07:31:22.465Z,93.90
2019-03-31T07:33:50.957Z,93.60
2019-03-31T07:36:19.413Z,93.20
2019-03-31T07:38:48.011Z,92.70
2019-03-31T07:41:16.773Z,93.10
2019-03-31T07:43:45.318Z,92.80
2019-03-31T07:46:13.757Z,91.80
2019-03-31T07:48:42.202Z,92.00
2019-03-31T07:51:10.680Z,91.50
2019-03-31T07:53:39.161Z,91.00
2019-03-31T07:56:07.605Z,91.10
2019-03-31T07:58:36.084Z,91.40
2019-03-31T08:01:04.539Z,91.20
2019-03-31T08:03:33.018Z,91.10
2019-03-31T08:06:01.493Z,90.50
2019-03-31T08:08:29.936Z,90.40
2019-03-31T08:10:58.417Z,90.60
2019-03-31T08:13:26.857Z,90.20
2019-03-31T08:15:55.367Z,90.20
2019-03-31T08:18:23.808Z,90.10
2019-03-31T08:20:52.255Z,89.10
2019-03-31T08:23:20.749Z,89.40
2019-03-31T08:25:49.197Z,88.40
2019-03-31T08:28:17.641Z,88.10
2019-03-31T08:30:46.112Z,88.60
2019-03-31T08:33:14.565Z,88.60
2019-03-31T08:35:47.644Z,89.00
2019-03-31T08:38:13.261Z,88.30
2019-03-31T08:40:41.703Z,88.70
2019-03-31T08:43:10.201Z,86.90
2019-03-31T08:45:38.649Z,87.20
2019-03-31T08:48:07.170Z,87.10
2019-03-31T08:50:35.666Z,87.00
2019-03-31T08:53:04.359Z,87.20
2019-03-31T08:55:32.805Z,86.40
2019-03-31T08:58:01.280Z,85.00
2019-03-31T09:00:43.157Z,85.20
2019-03-31T09:03:11.672Z,84.20
2019-03-31T09:05:40.125Z,83.90
2019-03-31T09:08:08.575Z,83.70
2019-03-31T09:10:37.112Z,82.50
2019-03-31T09:13:05.726Z,82.40
2019-03-31T09:15:34.177Z,81.90
2019-03-31T09:18:02.699Z,82.90
2019-03-31T09:20:31.225Z,83.20
2019-03-31T09:22:59.675Z,83.70
2019-03-31T09:25:28.160Z,83.50
2019-03-31T09:27:56.605Z,84.20
2019-03-31T09:30:25.269Z,83.80
2019-03-31T09:32:53.788Z,83.50
2019-03-31T09:35:22.237Z,83.10
2019-03-31T09:37:50.722Z,83.40
2019-03-31T09:40:19.169Z,82.90
2019-03-31T09:42:47.604Z,83.80
2019-03-31T09:45:16.563Z,82.50
2019-03-31T09:47:45.009Z,82.10
2019-03-31T09:50:17.315Z,83.40
2019-03-31T09:52:45.573Z,83.90
2019-03-31T09:55:14.161Z,82.90
2019-03-31T09:57:43.068Z,82.90
2019-03-31T10:00:14.737Z,82.90
2019-03-31T10:02:43.334Z,83.60
2019-03-31T10:05:12.280Z,84.00
2019-03-31T10:07:40.937Z,84.70
2019-03-31T10:10:11.492Z,85.30
2019-03-31T10:12:40.150Z,85.20
2019-03-31T10:15:09.055Z,85.10
2019-03-31T10:17:37.629Z,85.30
2019-03-31T10:20:07.017Z,85.70
2019-03-31T10:22:35.465Z,85.20
2019-03-31T10:25:06.116Z,85.60
2019-03-31T10:27:34.615Z,85.70
2019-03-31T10:30:03.480Z,86.00
2019-03-31T10:32:32.317Z,85.50
2019-03-31T10:35:00.761Z,86.20
2019-03-31T10:37:29.212Z,86.80
2019-03-31T10:39:57.721Z,86.20
2019-03-31T10:42:26.165Z,85.90
2019-03-31T10:44:54.610Z,85.20
2019-03-31T10:47:23.087Z,81.50
2019-03-31T10:49:51.529Z,81.90
2019-03-31T10:52:20.010Z,81.80
2019-03-31T10:54:48.497Z,83.50
2019-03-31T10:57:16.942Z,82.60
2019-03-31T10:59:45.725Z,82.00
2019-03-31T11:02:14.459Z,80.70
2019-03-31T11:04:42.909Z,80.50
2019-03-31T11:07:11.405Z,79.60
2019-03-31T11:09:39.860Z,78.60
2019-03-31T11:12:08.389Z,78.30
2019-03-31T11:14:36.961Z,78.10
2019-03-31T11:17:07.046Z,78.50
2019-03-31T11:19:35.537Z,78.10
2019-03-31T11:22:08.243Z,78.50
2019-03-31T11:24:36.737Z,77.20
2019-03-31T11:27:05.194Z,78.80
2019-03-31T11:29:33.639Z,78.40
2019-03-31T11:32:02.135Z,77.90
2019-03-31T11:34:31.463Z,78.00
2019-03-31T11:37:13.010Z,78.00
2019-03-31T11:39:30.129Z,77.20
2019-03-31T11:41:58.577Z,77.20
2019-03-31T11:44:27.851Z,74.20
2019-03-31T11:46:56.627Z,72.00
2019-03-31T11:49:25.150Z,69.50
2019-03-31T11:51:53.597Z,69.40
2019-03-31T11:54:22.044Z,62.20
2019-03-31T11:56:50.692Z,61.50
2019-03-31T11:59:20.789Z,59.90
2019-03-31T12:01:49.321Z,60.10
2019-03-31T12:04:17.872Z,58.60
2019-03-31T12:06:46.425Z,58.70
2019-03-31T12:09:14.877Z,58.10
2019-03-31T12:11:45.640Z,58.80
2019-03-31T12:14:13.607Z,58.90
2019-03-31T12:16:42.049Z,57.10
2019-03-31T12:19:10.569Z,53.50
2019-03-31T12:21:39.051Z,51.80
2019-03-31T12:24:07.498Z,51.50
2019-03-31T12:26:35.973Z,51.80
2019-03-31T12:29:04.581Z,50.50
2019-03-31T12:31:33.405Z,50.50
2019-03-31T12:34:01.923Z,49.20
2019-03-31T12:36:30.445Z,47.50
2019-03-31T12:38:58.961Z,48.40
2019-03-31T12:41:27.473Z,49.20
2019-03-31T12:43:55.925Z,47.20
2019-03-31T12:46:24.445Z,47.90
2019-03-31T12:48:53.001Z,46.60
2019-03-31T12:51:21.494Z,44.30
2019-03-31T12:53:51.273Z,45.70
2019-03-31T12:56:19.871Z,46.30
2019-03-31T12:58:48.611Z,45.70
2019-03-31T13:01:17.196Z,44.90
2019-03-31T13:03:45.641Z,44.50
2019-03-31T13:06:14.365Z,43.20
2019-03-31T13:08:42.824Z,42.60
2019-03-31T13:11:11.330Z,40.20
2019-03-31T13:13:39.854Z,38.70
2019-03-31T13:16:08.478Z,38.20
2019-03-31T13:18:37.007Z,39.60
2019-03-31T13:21:05.897Z,40.80
2019-03-31T13:23:34.350Z,48.40
2019-03-31T13:26:02.803Z,42.70
2019-03-31T13:28:31.374Z,42.30
2019-03-31T13:30:59.824Z,41.90
2019-03-31T13:33:28.291Z,41.90
2019-03-31T13:35:57.009Z,39.80
2019-03-31T13:38:25.459Z,39.20
2019-03-31T13:40:53.981Z,38.90
2019-03-31T13:43:22.493Z,40.50
2019-03-31T13:45:50.933Z,38.40
2019-03-31T13:48:19.377Z,37.70
2019-03-31T13:50:47.874Z,39.70
2019-03-31T13:53:16.599Z,36.50
2019-03-31T13:55:45.125Z,37.30
2019-03-31T13:58:14.252Z,38.00
2019-03-31T14:00:43.869Z,38.60
2019-03-31T14:03:12.529Z,38.80
2019-03-31T14:05:41.054Z,38.80
2019-03-31T14:08:24.691Z,39.80
2019-03-31T14:10:41.226Z,43.00
2019-03-31T14:13:09.792Z,41.40
2019-03-31T14:15:38.240Z,40.60
2019-03-31T14:18:07.029Z,41.30
2019-03-31T14:20:35.581Z,40.40
2019-03-31T14:23:04.373Z,40.20
2019-03-31T14:25:32.937Z,41.00
2019-03-31T14:28:01.389Z,39.80
2019-03-31T14:30:29.837Z,41.50
2019-03-31T14:32:58.439Z,40.80
2019-03-31T14:35:26.865Z,38.80
2019-03-31T14:37:55.321Z,38.40
2019-03-31T14:40:23.825Z,38.00
2019-03-31T14:42:52.275Z,38.70
2019-03-31T14:45:29.491Z,38.70
2019-03-31T14:47:58.973Z,38.50
2019-03-31T14:50:34.938Z,39.40
2019-03-31T14:53:04.222Z,37.20
2019-03-31T14:55:32.743Z,38.80
2019-03-31T14:58:01.286Z,36.30
2019-03-31T15:00:29.738Z,34.70
2019-03-31T15:02:58.245Z,32.60
2019-03-31T15:05:26.771Z,35.50
2019-03-31T15:07:58.304Z,34.30
2019-03-31T15:10:25.505Z,30.90
2019-03-31T15:12:54.016Z,30.30
2019-03-31T15:15:22.535Z,32.70
2019-03-31T15:17:50.979Z,33.40
2019-03-31T15:20:19.461Z,33.40
2019-03-31T15:22:51.261Z,33.80
2019-03-31T15:25:18.155Z,34.60
2019-03-31T15:27:46.593Z,37.20
2019-03-31T15:30:15.337Z,35.40
2019-03-31T15:32:43.794Z,37.30
2019-03-31T15:35:12.313Z,36.60
2019-03-31T15:37:40.838Z,36.20
2019-03-31T15:40:09.532Z,37.30
2019-03-31T15:42:38.050Z,37.00
2019-03-31T15:45:07.480Z,38.20
2019-03-31T15:47:35.999Z,37.80
2019-03-31T15:50:06.709Z,37.40
2019-03-31T15:52:35.152Z,37.70
2019-03-31T15:55:08.065Z,37.20
2019-03-31T15:57:36.573Z,39.70
2019-03-31T16:00:07.450Z,36.90
2019-03-31T16:02:36.000Z,36.80
2019-03-31T16:05:06.760Z,54.50
2019-03-31T16:07:35.282Z,37.90
2019-03-31T16:10:05.432Z,40.70
2019-03-31T16:12:33.884Z,38.30
2019-03-31T16:15:02.332Z,39.80
2019-03-31T16:17:30.852Z,40.50
2019-03-31T16:19:59.309Z,41.70
2019-03-31T16:22:27.758Z,40.90
2019-03-31T16:24:57.941Z,41.60
2019-03-31T16:27:26.493Z,41.30
2019-03-31T16:29:54.948Z,41.30
2019-03-31T16:32:23.542Z,41.20
2019-03-31T16:34:52.053Z,40.20
2019-03-31T16:37:20.497Z,39.70
2019-03-31T16:39:49.265Z,38.90
2019-03-31T16:42:17.813Z,39.20
2019-03-31T16:44:57.471Z,39.10
2019-03-31T16:47:16.552Z,39.00
2019-03-31T16:49:45.043Z,39.70
2019-03-31T16:52:13.634Z,38.00
2019-03-31T16:54:42.211Z,37.80
2019-03-31T16:57:10.650Z,37.70
2019-03-31T16:59:39.098Z,35.10
2019-03-31T17:02:07.707Z,37.70
2019-03-31T17:04:36.192Z,38.70
2019-03-31T17:07:05.814Z,37.50
2019-03-31T17:09:34.560Z,37.80
2019-03-31T17:12:03.278Z,36.60
2019-03-31T17:14:31.901Z,39.70
2019-03-31T17:17:00.409Z,39.30
2019-03-31T17:19:28.869Z,40.00
2019-03-31T17:21:59.742Z,40.20
2019-03-31T17:24:27.539Z,42.00
2019-03-31T17:26:55.986Z,42.10
2019-03-31T17:29:24.500Z,42.60
2019-03-31T17:31:52.960Z,44.50
2019-03-31T17:34:21.869Z,44.10
2019-03-31T17:36:50.769Z,45.00
2019-03-31T17:39:19.286Z,44.80
2019-03-31T17:41:47.732Z,46.80
2019-03-31T17:44:16.242Z,46.00
2019-03-31T17:46:44.689Z,47.80
2019-03-31T17:49:13.357Z,47.80
2019-03-31T17:51:42.168Z,47.70
2019-03-31T17:54:10.625Z,49.80
2019-03-31T17:56:39.087Z,50.20
2019-03-31T17:59:08.999Z,50.00
2019-03-31T18:01:38.483Z,51.80
2019-03-31T18:04:07.419Z,50.90
2019-03-31T18:06:35.949Z,52.10
2019-03-31T18:09:07.410Z,52.50
2019-03-31T18:11:35.961Z,51.10
2019-03-31T18:14:06.837Z,52.50
2019-03-31T18:16:34.935Z,53.90
2019-03-31T18:19:03.395Z,54.20
2019-03-31T18:21:32.001Z,54.60
2019-03-31T18:24:00.437Z,55.40
2019-03-31T18:26:28.903Z,54.40
2019-03-31T18:28:57.389Z,55.90
2019-03-31T18:31:25.863Z,56.30
2019-03-31T18:33:54.353Z,56.70
2019-03-31T18:36:35.874Z,55.90
2019-03-31T18:38:52.962Z,56.70
2019-03-31T18:41:21.521Z,56.30
2019-03-31T18:43:51.878Z,56.30
2019-03-31T18:46:20.617Z,57.40
2019-03-31T18:48:49.051Z,56.70
2019-03-31T18:51:17.565Z,56.50
2019-03-31T18:54:04.289Z,57.30
2019-03-31T18:56:50.936Z,57.30
2019-03-31T19:02:25.068Z,57.30
2019-03-31T19:05:09.262Z,57.40
2019-03-31T19:07:39.693Z,57.80
2019-03-31T19:10:23.758Z,59.00
2019-03-31T19:12:46.705Z,60.50
2019-03-31T19:15:16.780Z,59.50
2019-03-31T19:17:53.349Z,60.30
2019-03-31T19:20:35.850Z,62.80
2019-03-31T19:23:18.173Z,63.70
2019-03-31T19:25:48.261Z,63.30
2019-03-31T19:28:21.008Z,64.80
2019-03-31T19:30:57.141Z,62.00
2019-03-31T19:33:27.229Z,64.30
2019-03-31T19:36:13.841Z,65.80
2019-03-31T19:38:52.969Z,66.60
2019-03-31T19:41:26.105Z,67.00
2019-03-31T19:43:56.189Z,66.90
2019-03-31T19:46:35.358Z,69.50
2019-03-31T19:49:14.225Z,68.00
2019-03-31T19:51:44.372Z,68.90
2019-03-31T19:54:14.448Z,68.20
2019-03-31T19:56:46.975Z,69.50
2019-03-31T19:59:33.394Z,66.30
2019-03-31T20:02:18.634Z,66.90
2019-03-31T20:04:48.774Z,66.60
2019-03-31T20:07:35.689Z,64.70
2019-03-31T20:10:18.913Z,66.50
2019-03-31T20:13:05.056Z,65.90
2019-03-31T20:15:41.109Z,65.60
2019-03-31T20:18:29.445Z,65.00
2019-03-31T20:20:59.593Z,67.90
2019-03-31T20:23:29.680Z,69.60
2019-03-31T20:26:14.829Z,68.10
2019-03-31T20:28:57.181Z,68.80
2019-03-31T20:31:33.401Z,68.40
2019-03-31T20:34:03.495Z,67.50
2019-03-31T20:36:36.288Z,68.70
2019-03-31T20:39:14.982Z,70.50
2019-03-31T20:41:45.141Z,70.60
2019-03-31T20:44:13.590Z,68.50
2019-03-31T20:46:42.034Z,67.70
2019-03-31T20:49:10.750Z,66.90
2019-03-31T20:51:39.212Z,67.90
2019-03-31T20:54:07.701Z,68.10
2019-03-31T20:56:36.197Z,68.40
2019-03-31T20:59:04.718Z,66.40
2019-03-31T21:01:33.480Z,67.30
2019-03-31T21:04:01.926Z,67.70
2019-03-31T21:06:30.357Z,67.30
2019-03-31T21:08:59.004Z,68.50
2019-03-31T21:11:27.502Z,69.40
2019-03-31T21:13:57.140Z,70.10
2019-03-31T21:16:25.861Z,71.50
2019-03-31T21:18:54.374Z,72.80
2019-03-31T21:21:22.812Z,74.00
2019-03-31T21:23:51.262Z,74.50
2019-03-31T21:26:19.829Z,75.20
2019-03-31T21:28:48.278Z,75.80
2019-03-31T21:31:18.249Z,76.30
2019-03-31T21:33:46.719Z,78.20
2019-03-31T21:36:15.203Z,78.50
2019-03-31T21:38:43.642Z,78.10
2019-03-31T21:41:14.126Z,78.60
2019-03-31T21:43:42.304Z,78.40
2019-03-31T21:46:10.745Z,79.50
2019-03-31T21:48:39.184Z,79.80
2019-03-31T21:51:07.769Z,80.60
2019-03-31T21:53:36.298Z,81.60
2019-03-31T21:56:05.073Z,81.50
2019-03-31T21:58:33.766Z,81.60
2019-03-31T22:01:02.481Z,82.30
2019-03-31T22:03:30.918Z,84.10
2019-03-31T22:05:59.629Z,83.50
2019-03-31T22:08:28.069Z,82.80
2019-03-31T22:10:56.573Z,82.00
2019-03-31T22:13:25.047Z,82.50
2019-03-31T22:15:53.517Z,82.90
2019-03-31T22:18:21.955Z,83.80
2019-03-31T22:20:50.455Z,84.50
2019-03-31T22:23:18.892Z,84.50
2019-03-31T22:25:47.333Z,85.40
2019-03-31T22:28:16.103Z,84.30
2019-03-31T22:30:44.532Z,85.60
2019-03-31T22:33:12.968Z,85.30
2019-03-31T22:35:43.118Z,85.10
2019-03-31T22:38:11.558Z,84.80
2019-03-31T22:40:40.005Z,85.90
2019-03-31T22:43:08.484Z,85.50
2019-03-31T22:45:36.921Z,86.50
2019-03-31T22:48:05.365Z,86.50
2019-03-31T22:50:34.104Z,86.10
2019-03-31T22:53:02.671Z,87.70
2019-03-31T22:55:31.107Z,87.90
2019-03-31T22:57:59.612Z,88.30
2019-03-31T23:00:28.121Z,89.20
2019-03-31T23:02:56.560Z,89.00
2019-03-31T23:05:25.045Z,89.40
2019-03-31T23:07:53.487Z,90.20
2019-03-31T23:10:22.103Z,90.10
2019-03-31T23:12:50.549Z,90.40
2019-03-31T23:15:19.062Z,90.40
2019-03-31T23:17:47.497Z,90.30
2019-03-31T23:20:15.933Z,90.10
2019-03-31T23:22:44.442Z,90.30
2019-03-31T23:25:12.877Z,90.60
2019-03-31T23:27:41.312Z,90.70
2019-03-31T23:30:11.001Z,90.80
2019-03-31T23:32:39.560Z,91.40
2019-03-31T23:35:08.337Z,91.30
2019-03-31T23:37:36.785Z,91.20
2019-03-31T23:40:05.885Z,91.50
2019-03-31T23:42:34.325Z,91.90
2019-03-31T23:45:02.933Z,91.70
2019-03-31T23:47:31.369Z,92.10
2019-03-31T23:49:59.807Z,92.10
2019-03-31T23:52:28.280Z,91.90
2019-03-31T23:54:56.794Z,92.00
2019-03-31T23:57:43.782Z,92.50
